Time;durP1;ratioP1;P1;durP2;ratioP2;P2;SDS_P1;SDS_P2;PMS_P1;PMS_P2;Temp;Humidity;BMP_temperature;BMP_pressure;BME280_temperature;BME280_humidity;BME280_pressure;Samples;Min_cycle;Max_cycle;Signal;HPM_P1;HPM_P2
2021/10/01 00:00:09;;;;;;;1.60;1.00;;;9.10;99.00;;;;;;5003818;28;20019;-77
2021/10/01 00:02:34;;;;;;;0.95;0.90;;;9.00;99.20;;;;;;4993833;28;20080;-76
2021/10/01 00:05:00;;;;;;;0.85;0.82;;;9.00;99.30;;;;;;4978373;28;20057;-76
2021/10/01 00:07:29;;;;;;;1.73;1.20;;;9.00;99.40;;;;;;4997900;28;20029;-77
2021/10/01 00:09:55;;;;;;;1.85;1.20;;;9.00;99.50;;;;;;4996484;28;20081;-77
2021/10/01 00:12:21;;;;;;;1.27;1.17;;;9.00;99.60;;;;;;5002162;28;20027;-76
2021/10/01 00:14:48;;;;;;;1.20;1.10;;;9.00;99.70;;;;;;4977175;28;20061;-76
2021/10/01 00:17:15;;;;;;;1.98;1.10;;;9.00;99.80;;;;;;4960046;28;20383;-76
2021/10/01 00:19:41;;;;;;;1.27;0.90;;;9.00;99.80;;;;;;4985581;28;20026;-76
2021/10/01 00:22:07;;;;;;;1.85;1.45;;;8.90;99.90;;;;;;5005389;28;20439;-75
2021/10/01 00:24:35;;;;;;;1.65;1.08;;;8.90;99.90;;;;;;5022240;28;20053;-77
2021/10/01 00:27:02;;;;;;;1.67;0.98;;;8.90;99.90;;;;;;5016188;28;20045;-77
2021/10/01 00:29:28;;;;;;;1.23;1.08;;;8.90;99.90;;;;;;4998547;28;20355;-77
2021/10/01 00:31:53;;;;;;;2.15;0.98;;;8.80;99.90;;;;;;4992745;28;20026;-77
2021/10/01 00:34:19;;;;;;;1.02;1.00;;;8.80;99.90;;;;;;4977682;28;20027;-77
2021/10/01 00:36:45;;;;;;;4.07;1.65;;;8.90;99.90;;;;;;4976678;28;20111;-77
2021/10/01 00:39:11;;;;;;;1.63;1.13;;;8.80;99.90;;;;;;4976540;28;20027;-76
2021/10/01 00:41:37;;;;;;;1.67;1.52;;;8.80;99.90;;;;;;4997231;28;20172;-77
2021/10/01 00:44:04;;;;;;;1.55;1.45;;;8.80;99.90;;;;;;5014448;28;20022;-76
2021/10/01 00:46:31;;;;;;;1.92;1.35;;;8.70;99.90;;;;;;5016494;28;20022;-76
2021/10/01 00:48:57;;;;;;;2.20;1.50;;;8.70;99.90;;;;;;5015423;28;20107;-76
2021/10/01 00:51:24;;;;;;;2.78;1.45;;;8.70;99.90;;;;;;5004661;28;20044;-77
2021/10/01 00:53:52;;;;;;;1.23;1.08;;;8.70;99.90;;;;;;4995592;28;20033;-76
2021/10/01 00:56:22;;;;;;;1.40;1.30;;;8.60;99.90;;;;;;5015330;28;20451;-76
2021/10/01 00:58:48;;;;;;;2.75;1.30;;;8.60;99.90;;;;;;5015871;28;20014;-76
2021/10/01 01:01:14;;;;;;;0.85;0.85;;;8.60;99.90;;;;;;5015230;28;20200;-77
2021/10/01 01:03:52;;;;;;;1.25;0.90;;;8.60;99.90;;;;;;4980527;28;20110;-76
2021/10/01 01:06:36;;;;;;;1.67;1.20;;;8.60;99.90;;;;;;4976263;28;20027;-76
2021/10/01 01:09:24;;;;;;;1.30;1.20;;;8.50;99.90;;;;;;4976720;28;20415;-76
2021/10/01 01:12:11;;;;;;;1.38;1.20;;;8.50;99.90;;;;;;4993281;28;20515;-77
2021/10/01 01:14:52;;;;;;;2.65;1.35;;;8.50;99.90;;;;;;4976813;28;20539;-77
2021/10/01 01:17:41;;;;;;;1.63;1.23;;;8.40;99.90;;;;;;4975722;28;20074;-77
2021/10/01 01:20:11;;;;;;;1.42;1.10;;;8.50;99.90;;;;;;4987739;28;20339;-76
2021/10/01 01:23:14;;;;;;;1.58;1.30;;;8.50;99.90;;;;;;5007984;28;20030;-77
2021/10/01 01:25:39;;;;;;;;;;;8.50;99.90;;;;;;4975978;28;20023;-76
2021/10/01 01:28:33;;;;;;;1.55;1.20;;;8.40;99.90;;;;;;4975332;28;19912;-76
2021/10/01 01:31:28;;;;;;;1.95;1.10;;;8.40;99.90;;;;;;4975473;28;20070;-76
2021/10/01 01:33:57;;;;;;;1.70;1.30;;;8.40;99.90;;;;;;4985025;28;20497;-77
2021/10/01 01:36:23;;;;;;;1.42;1.05;;;8.50;99.90;;;;;;4994859;28;20080;-77
2021/10/01 01:38:51;;;;;;;3.80;0.90;;;8.40;99.90;;;;;;4977621;28;20030;-77
2021/10/01 01:41:19;;;;;;;1.08;0.93;;;8.40;99.90;;;;;;5002870;28;20169;-76
2021/10/01 01:43:46;;;;;;;1.00;1.00;;;8.30;99.90;;;;;;4982958;28;20034;-77
2021/10/01 01:46:12;;;;;;;1.20;1.10;;;8.30;99.90;;;;;;4975494;28;20023;-76
2021/10/01 01:48:40;;;;;;;1.08;1.00;;;8.30;99.90;;;;;;4975816;28;20475;-75
2021/10/01 01:51:08;;;;;;;1.15;1.00;;;8.20;99.90;;;;;;4981427;28;20394;-76
2021/10/01 01:53:34;;;;;;;0.85;0.85;;;8.20;99.90;;;;;;5005000;28;20018;-75
2021/10/01 01:56:01;;;;;;;1.08;0.98;;;8.20;99.90;;;;;;4974784;28;20066;-76
2021/10/01 01:58:28;;;;;;;1.17;0.90;;;8.20;99.90;;;;;;4974980;28;20029;-77
2021/10/01 02:00:54;;;;;;;0.90;0.82;;;8.20;99.90;;;;;;4974694;28;20081;-77
2021/10/01 02:03:21;;;;;;;1.23;1.02;;;8.20;99.90;;;;;;4974567;28;20037;-76
2021/10/01 02:05:48;;;;;;;5.20;1.40;;;8.20;99.90;;;;;;4992183;28;20041;-75
2021/10/01 02:08:16;;;;;;;1.48;1.08;;;8.20;99.90;;;;;;4995107;28;20495;-76
2021/10/01 02:10:42;;;;;;;1.88;1.30;;;8.10;99.90;;;;;;5001753;28;20034;-76
2021/10/01 02:13:10;;;;;;;1.70;1.08;;;8.10;99.90;;;;;;5006458;28;20022;-77
2021/10/01 02:15:37;;;;;;;1.90;1.00;;;8.10;99.90;;;;;;4988317;28;20023;-77
2021/10/01 02:18:05;;;;;;;1.90;1.27;;;8.10;99.90;;;;;;4974509;28;20515;-78
2021/10/01 02:20:34;;;;;;;1.30;0.75;;;8.10;99.90;;;;;;4993016;28;20054;-77
2021/10/01 02:23:01;;;;;;;1.20;0.90;;;8.10;99.90;;;;;;5005890;28;20022;-78
2021/10/01 02:28:23;;;;;;;1.70;1.33;;;8.10;99.90;;;;;;4993789;28;20076;-77
2021/10/01 02:30:52;;;;;;;1.55;0.93;;;8.10;99.90;;;;;;4995854;28;20026;-76
2021/10/01 02:33:32;;;;;;;1.90;1.00;;;8.10;99.90;;;;;;4994531;28;20034;-77
2021/10/01 02:35:58;;;;;;;1.50;1.30;;;8.00;99.90;;;;;;4984847;28;20086;-76
2021/10/01 02:38:23;;;;;;;2.10;1.42;;;8.00;99.90;;;;;;4974498;28;20441;-77
2021/10/01 02:40:49;;;;;;;2.38;1.55;;;8.00;99.90;;;;;;4994960;28;20117;-76
2021/10/01 02:43:15;;;;;;;1.45;1.08;;;8.00;99.90;;;;;;4995748;28;20088;-76
2021/10/01 02:45:41;;;;;;;2.70;0.90;;;8.00;99.90;;;;;;5003581;28;20566;-76
2021/10/01 02:48:06;;;;;;;1.90;1.10;;;8.00;99.90;;;;;;4974281;28;20030;-76
2021/10/01 02:50:32;;;;;;;2.65;1.08;;;7.90;99.90;;;;;;4992637;28;20034;-76
2021/10/01 02:53:15;;;;;;;0.90;0.90;;;8.00;99.90;;;;;;5005087;28;20479;-76
2021/10/01 02:55:53;;;;;;;1.10;1.00;;;7.90;99.90;;;;;;5009585;28;20490;-77
2021/10/01 02:58:36;;;;;;;1.33;1.15;;;7.90;99.90;;;;;;4974539;28;20038;-76
2021/10/01 03:01:05;;;;;;;2.17;1.45;;;7.90;99.90;;;;;;4955831;28;20054;-76
2021/10/01 03:03:43;;;;;;;1.35;1.25;;;7.90;99.90;;;;;;4974588;28;20047;-76
2021/10/01 03:06:09;;;;;;;3.15;1.30;;;7.90;99.90;;;;;;4975615;28;20073;-77
2021/10/01 03:08:37;;;;;;;2.08;1.52;;;7.80;99.90;;;;;;4992467;28;20471;-76
2021/10/01 03:11:10;;;;;;;1.80;1.02;;;7.80;99.90;;;;;;4995239;28;20041;-76
2021/10/01 03:13:39;;;;;;;2.33;1.10;;;7.80;99.90;;;;;;4996875;28;20399;-77
2021/10/01 03:16:05;;;;;;;1.42;0.98;;;7.80;99.90;;;;;;4992122;28;20080;-78
2021/10/01 03:18:34;;;;;;;1.90;1.33;;;7.80;99.90;;;;;;4973792;28;20030;-77
2021/10/01 03:21:03;;;;;;;2.00;1.58;;;7.80;99.90;;;;;;4996641;28;20022;-77
2021/10/01 03:23:28;;;;;;;2.22;1.05;;;7.70;99.90;;;;;;5007078;28;20029;-77
2021/10/01 03:25:54;;;;;;;3.15;2.00;;;7.70;99.90;;;;;;5012469;28;20462;-77
2021/10/01 03:28:21;;;;;;;1.10;1.00;;;7.70;99.90;;;;;;4982524;28;20077;-77
2021/10/01 03:30:48;;;;;;;3.03;1.10;;;7.70;99.90;;;;;;4972548;28;20038;-77
2021/10/01 03:33:14;;;;;;;1.42;1.23;;;7.70;99.90;;;;;;4973000;28;20051;-77
2021/10/01 03:35:45;;;;;;;1.45;1.35;;;7.70;99.90;;;;;;4973470;28;20034;-77
2021/10/01 03:38:13;;;;;;;1.67;1.30;;;7.70;99.90;;;;;;4982610;28;20053;-77
2021/10/01 03:40:46;;;;;;;1.75;1.23;;;7.60;99.90;;;;;;4993697;28;20042;-77
2021/10/01 03:43:12;;;;;;;1.75;1.10;;;7.60;99.90;;;;;;5004930;28;20032;-77
2021/10/01 03:45:38;;;;;;;1.80;1.02;;;7.60;99.90;;;;;;5012097;28;20068;-77
2021/10/01 03:48:05;;;;;;;1.67;1.10;;;7.60;99.90;;;;;;4998571;28;20027;-77
2021/10/01 03:50:32;;;;;;;1.85;1.25;;;7.60;99.90;;;;;;4992177;28;20041;-77
2021/10/01 03:52:58;;;;;;;1.52;1.40;;;7.60;99.90;;;;;;5000402;28;20049;-77
2021/10/01 03:55:24;;;;;;;1.80;1.10;;;7.60;99.90;;;;;;4999175;28;20429;-77
2021/10/01 03:57:50;;;;;;;2.65;1.35;;;7.60;99.90;;;;;;4989315;28;20367;-77
2021/10/01 04:00:18;;;;;;;7.57;1.40;;;7.50;99.90;;;;;;4956202;28;20035;-77
2021/10/01 04:02:44;;;;;;;6.15;1.40;;;7.50;99.90;;;;;;4956689;28;20049;-77
2021/10/01 04:05:10;;;;;;;2.88;1.50;;;7.50;99.90;;;;;;4956142;28;20031;-77
2021/10/01 04:07:37;;;;;;;4.63;1.63;;;7.60;99.90;;;;;;4973466;28;20033;-77
2021/10/01 04:10:04;;;;;;;3.13;1.48;;;7.50;99.90;;;;;;4975606;28;20041;-77
2021/10/01 04:12:30;;;;;;;3.63;1.15;;;7.50;99.90;;;;;;5004985;28;20561;-76
2021/10/01 04:14:56;;;;;;;1.23;1.10;;;7.50;99.90;;;;;;5014457;28;20026;-76
2021/10/01 04:17:21;;;;;;;1.10;0.90;;;7.50;99.90;;;;;;4996124;28;20181;-77
2021/10/01 04:19:47;;;;;;;0.93;0.93;;;7.50;99.90;;;;;;4977397;28;20456;-76
2021/10/01 04:22:13;;;;;;;1.13;0.98;;;7.50;99.90;;;;;;5005207;28;20109;-76
2021/10/01 04:24:39;;;;;;;1.20;1.00;;;7.50;99.90;;;;;;5013411;28;20109;-76
2021/10/01 04:27:04;;;;;;;5.00;1.02;;;7.50;99.90;;;;;;5013530;28;20058;-77
2021/10/01 04:29:30;;;;;;;1.70;1.08;;;7.50;99.90;;;;;;5005677;28;20092;-76
2021/10/01 04:31:56;;;;;;;2.65;1.20;;;7.50;99.90;;;;;;4992800;28;20098;-77
2021/10/01 04:34:22;;;;;;;0.85;0.80;;;7.50;99.90;;;;;;4994930;28;20483;-77
2021/10/01 04:36:47;;;;;;;2.65;1.25;;;7.60;99.90;;;;;;5001797;28;20023;-76
2021/10/01 04:39:13;;;;;;;1.58;1.00;;;7.60;99.90;;;;;;5001909;28;20030;-76
2021/10/01 04:41:41;;;;;;;2.10;0.80;;;7.50;99.90;;;;;;5004419;28;20027;-76
2021/10/01 04:44:07;;;;;;;1.30;1.20;;;7.50;99.90;;;;;;5028593;28;20034;-78
2021/10/01 04:46:33;;;;;;;1.45;1.15;;;7.50;99.90;;;;;;5022670;28;20018;-78
2021/10/01 04:48:59;;;;;;;2.88;1.23;;;7.50;99.90;;;;;;5028719;28;20045;-76
2021/10/01 04:51:26;;;;;;;1.45;0.80;;;7.40;99.90;;;;;;5033479;28;20034;-77
2021/10/01 04:53:55;;;;;;;0.98;0.70;;;7.40;99.90;;;;;;5016880;28;20513;-76
2021/10/01 04:56:22;;;;;;;1.52;0.85;;;7.40;99.90;;;;;;5029835;28;20077;-77
2021/10/01 04:58:47;;;;;;;1.10;0.90;;;7.40;99.90;;;;;;5024081;28;20022;-77
2021/10/01 05:01:13;;;;;;;1.35;1.15;;;7.40;99.90;;;;;;4994598;28;20038;-78
2021/10/01 05:03:39;;;;;;;0.90;0.80;;;7.40;99.90;;;;;;4979099;28;20026;-77
2021/10/01 05:06:05;;;;;;;0.60;0.55;;;7.40;99.90;;;;;;4980184;28;20503;-78
2021/10/01 05:08:30;;;;;;;2.03;1.08;;;7.30;99.90;;;;;;4979175;28;20042;-77
2021/10/01 05:10:56;;;;;;;1.35;0.80;;;7.30;99.90;;;;;;4989695;28;20077;-77
2021/10/01 05:13:22;;;;;;;1.55;1.02;;;7.40;99.90;;;;;;4998301;28;20122;-78
2021/10/01 05:15:49;;;;;;;0.50;0.50;;;7.40;99.90;;;;;;4998702;28;20117;-78
2021/10/01 05:18:16;;;;;;;2.50;1.00;;;7.40;99.90;;;;;;4998438;28;20074;-76
2021/10/01 05:20:42;;;;;;;1.38;1.00;;;7.40;99.90;;;;;;5001023;28;20022;-79
2021/10/01 05:23:08;;;;;;;1.20;0.80;;;7.40;99.90;;;;;;4997736;28;20058;-78
2021/10/01 05:25:34;;;;;;;1.90;0.85;;;7.50;99.90;;;;;;4978221;28;20030;-77
2021/10/01 05:28:00;;;;;;;1.25;0.90;;;7.50;99.90;;;;;;5007510;28;20030;-77
2021/10/01 05:30:26;;;;;;;0.63;0.63;;;7.60;99.90;;;;;;5008924;28;20526;-77
2021/10/01 05:32:51;;;;;;;1.50;1.00;;;7.60;99.90;;;;;;5010140;28;20053;-77
2021/10/01 05:35:17;;;;;;;1.55;0.70;;;7.60;99.90;;;;;;5003176;28;20033;-77
2021/10/01 05:37:45;;;;;;;0.70;0.70;;;7.70;99.90;;;;;;4999587;28;20438;-78
2021/10/01 05:40:12;;;;;;;1.05;0.70;;;7.70;99.90;;;;;;5028706;23;20070;-82
2021/10/01 05:42:37;;;;;;;2.17;0.77;;;7.80;99.90;;;;;;5016870;28;20058;-81
2021/10/01 05:45:05;;;;;;;1.33;0.82;;;7.80;99.90;;;;;;5032246;28;20041;-81
2021/10/01 05:47:32;;;;;;;0.88;0.75;;;7.90;99.90;;;;;;5042287;28;20050;-82
2021/10/01 05:50:03;;;;;;;1.42;0.95;;;7.90;99.90;;;;;;5036886;28;20116;-82
2021/10/01 05:54:57;;;;;;;1.27;0.73;;;8.10;99.90;;;;;;5039876;28;20095;-79
2021/10/01 05:57:23;;;;;;;0.98;0.93;;;8.20;99.90;;;;;;5032680;28;20022;-79
2021/10/01 05:59:49;;;;;;;2.00;1.63;;;8.20;99.90;;;;;;5031483;28;20018;-80
2021/10/01 06:02:21;;;;;;;5.07;1.85;;;8.20;99.90;;;;;;5031516;28;20064;-79
2021/10/01 06:04:52;;;;;;;3.83;1.95;;;8.20;99.90;;;;;;5031528;28;20041;-78
2021/10/01 06:07:19;;;;;;;3.72;1.70;;;8.20;99.90;;;;;;5021496;28;20022;-80
2021/10/01 06:09:46;;;;;;;2.75;1.65;;;8.20;99.90;;;;;;5031904;28;20038;-79
2021/10/01 06:12:13;;;;;;;2.67;1.60;;;8.30;99.90;;;;;;5037959;28;20052;-78
2021/10/01 06:14:40;;;;;;;1.85;1.45;;;8.40;99.90;;;;;;5034505;28;20014;-80
2021/10/01 06:17:07;;;;;;;4.00;1.30;;;8.50;99.90;;;;;;5043835;28;20053;-79
2021/10/01 06:19:36;;;;;;;2.85;1.30;;;8.60;99.90;;;;;;5033564;28;20096;-79
2021/10/01 06:22:03;;;;;;;1.63;1.23;;;8.70;99.90;;;;;;5032985;28;20041;-79
2021/10/01 06:24:29;;;;;;;2.53;1.50;;;8.80;99.90;;;;;;5032534;28;20033;-79
2021/10/01 06:26:55;;;;;;;1.60;1.30;;;8.90;99.90;;;;;;5044027;28;20034;-80
2021/10/01 06:29:21;;;;;;;1.70;1.27;;;9.00;99.90;;;;;;5049263;28;20018;-81
2021/10/01 06:31:47;;;;;;;2.40;1.13;;;9.10;99.90;;;;;;5055919;28;20036;-81
2021/10/01 06:34:13;;;;;;;3.10;1.40;;;9.20;99.90;;;;;;5056333;28;20112;-81
2021/10/01 06:36:40;;;;;;;3.05;1.42;;;9.30;99.90;;;;;;5055462;28;20021;-80
2021/10/01 06:39:07;;;;;;;2.80;0.93;;;9.40;99.90;;;;;;5037876;28;20041;-81
2021/10/01 06:41:33;;;;;;;3.10;1.40;;;9.50;99.90;;;;;;5044599;28;20022;-80
2021/10/01 06:44:02;;;;;;;1.45;0.93;;;9.70;99.90;;;;;;5053304;28;20005;-78
2021/10/01 07:35:13;;;;;;;2.13;1.42;;;11.50;95.60;;;;;;5024840;28;20480;-81
2021/10/01 08:20:57;;;;;;;2.88;0.82;;;14.20;88.30;;;;;;5007140;28;20074;-78
2021/10/01 08:23:22;;;;;;;2.95;0.80;;;14.40;86.20;;;;;;5023196;28;20034;-81
2021/10/01 08:25:48;;;;;;;2.25;1.00;;;14.40;85.50;;;;;;5025279;28;20025;-78
2021/10/01 08:28:14;;;;;;;1.85;0.98;;;14.50;84.60;;;;;;5027010;28;20038;-78
2021/10/01 08:30:40;;;;;;;1.20;0.98;;;14.50;84.30;;;;;;5028890;28;20033;-79
2021/10/01 08:33:06;;;;;;;2.40;1.05;;;14.60;83.70;;;;;;5027646;28;20022;-78
2021/10/01 08:35:32;;;;;;;3.38;1.27;;;14.60;83.00;;;;;;5025492;28;20092;-80
2021/10/01 08:37:58;;;;;;;1.33;1.02;;;14.70;82.80;;;;;;5028103;28;20033;-80
2021/10/01 08:40:25;;;;;;;2.53;1.58;;;14.90;82.70;;;;;;5032473;28;20037;-79
2021/10/01 08:42:53;;;;;;;3.35;1.30;;;15.10;81.30;;;;;;5028023;28;20491;-79
2021/10/01 08:45:21;;;;;;;0.88;0.80;;;15.20;80.50;;;;;;5027666;28;20451;-80
2021/10/01 08:47:47;;;;;;;0.88;0.82;;;15.50;79.80;;;;;;5025629;28;20384;-80
2021/10/01 08:50:17;;;;;;;1.77;0.90;;;15.60;78.10;;;;;;5025959;28;20375;-80
2021/10/01 08:52:43;;;;;;;4.28;1.30;;;15.70;76.90;;;;;;5019960;28;20093;-81
2021/10/01 08:55:10;;;;;;;2.67;0.88;;;15.60;76.30;;;;;;5007975;28;20036;-80
2021/10/01 08:57:36;;;;;;;1.35;0.80;;;15.70;76.60;;;;;;5026363;28;20533;-81
2021/10/01 09:00:07;;;;;;;1.10;1.00;;;16.00;76.30;;;;;;5022701;28;20026;-81
2021/10/01 09:02:33;;;;;;;0.98;0.93;;;16.40;74.70;;;;;;5029727;28;20017;-81
2021/10/01 09:04:58;;;;;;;3.08;0.93;;;16.50;72.40;;;;;;5021265;28;20014;-80
2021/10/01 09:07:25;;;;;;;0.50;0.50;;;16.40;71.90;;;;;;5028167;28;20018;-79
2021/10/01 09:09:54;;;;;;;0.60;0.60;;;16.50;72.50;;;;;;5019748;28;20030;-78
2021/10/01 09:12:22;;;;;;;0.75;0.73;;;16.90;71.60;;;;;;5031614;28;20022;-80
2021/10/01 09:14:56;;;;;;;0.95;0.82;;;17.10;69.90;;;;;;5001902;28;20104;-79
2021/10/01 09:17:24;;;;;;;0.98;0.88;;;17.30;67.80;;;;;;5022932;28;20041;-78
2021/10/01 09:19:51;;;;;;;1.65;0.93;;;17.30;67.80;;;;;;5001211;28;20033;-79
2021/10/01 09:22:25;;;;;;;3.33;1.02;;;17.40;67.40;;;;;;5016110;28;20371;-79
2021/10/01 09:24:51;;;;;;;4.15;1.20;;;17.40;66.60;;;;;;5023040;28;20409;-79
2021/10/01 09:27:17;;;;;;;1.92;0.90;;;17.30;66.50;;;;;;5007816;28;20061;-79
2021/10/01 09:29:43;;;;;;;1.50;0.98;;;17.30;67.00;;;;;;5017406;28;20053;-79
2021/10/01 09:32:15;;;;;;;1.05;0.60;;;17.30;66.70;;;;;;5006957;28;20509;-79
2021/10/01 09:34:42;;;;;;;;;;;17.40;67.10;;;;;;4989665;28;20073;-79
2021/10/01 09:37:22;;;;;;;1.77;0.80;;;17.50;66.20;;;;;;5004125;28;20000;-79
2021/10/01 09:39:56;;;;;;;1.13;0.70;;;17.80;65.50;;;;;;5014597;28;20022;-80
2021/10/01 09:42:24;;;;;;;0.98;0.77;;;17.90;64.60;;;;;;5023116;28;20045;-79
2021/10/01 09:44:59;;;;;;;3.00;1.10;;;17.90;63.90;;;;;;5012859;28;20034;-80
2021/10/01 09:47:58;;;;;;;2.83;0.93;;;18.10;64.30;;;;;;5023439;28;20045;-80
2021/10/01 09:50:31;;;;;;;0.90;0.55;;;18.30;63.50;;;;;;4994012;28;20086;-79
2021/10/01 09:53:03;;;;;;;0.55;0.55;;;18.60;61.90;;;;;;4985462;28;20092;-79
2021/10/01 09:55:29;;;;;;;1.20;0.77;;;18.70;61.30;;;;;;5004198;28;20029;-79
2021/10/01 09:58:07;;;;;;;2.53;0.75;;;18.60;61.30;;;;;;5016919;28;20042;-78
2021/10/01 10:00:48;;;;;;;0.50;0.50;;;18.70;61.20;;;;;;5004328;28;20030;-79
2021/10/01 10:03:29;;;;;;;0.40;0.40;;;18.80;60.80;;;;;;5015967;28;20115;-78
2021/10/01 10:06:04;;;;;;;0.65;0.50;;;19.10;60.70;;;;;;5015349;28;20093;-79
2021/10/01 10:08:30;;;;;;;0.50;0.40;;;19.20;60.10;;;;;;5019602;28;20057;-79
2021/10/01 10:10:59;;;;;;;0.60;0.60;;;19.50;59.50;;;;;;5012588;28;20431;-78
2021/10/01 10:13:48;;;;;;;1.67;0.70;;;19.60;58.50;;;;;;5022326;28;20475;-79
2021/10/01 10:16:18;;;;;;;0.73;0.52;;;19.50;58.40;;;;;;5020614;28;20113;-79
2021/10/01 10:18:46;;;;;;;1.75;1.00;;;19.40;58.40;;;;;;4981842;28;20090;-80
2021/10/01 10:21:12;;;;;;;1.58;0.85;;;19.40;58.90;;;;;;5021391;28;20030;-80
2021/10/01 10:23:38;;;;;;;1.73;0.90;;;19.50;58.50;;;;;;4997624;28;20029;-80
2021/10/01 10:26:04;;;;;;;1.23;0.40;;;19.60;57.80;;;;;;5034696;28;20021;-79
2021/10/01 10:28:33;;;;;;;0.77;0.60;;;19.40;58.60;;;;;;5033740;28;20041;-79
2021/10/01 10:30:58;;;;;;;1.77;0.90;;;19.60;59.00;;;;;;5005492;28;20030;-80
2021/10/01 10:33:43;;;;;;;1.08;0.90;;;19.60;58.30;;;;;;5009952;28;20356;-80
2021/10/01 10:36:28;;;;;;;1.52;0.80;;;19.60;58.80;;;;;;5003701;28;20030;-82
2021/10/01 10:38:56;;;;;;;1.05;0.85;;;19.60;59.30;;;;;;5001994;28;20095;-80
2021/10/01 10:41:23;;;;;;;0.80;0.77;;;19.50;59.30;;;;;;4988026;28;20022;-80
2021/10/01 10:43:49;;;;;;;1.20;0.77;;;19.40;59.00;;;;;;5023795;28;20437;-81
2021/10/01 10:46:34;;;;;;;0.70;0.70;;;19.40;58.70;;;;;;4989021;28;20510;-80
2021/10/01 10:49:19;;;;;;;0.80;0.80;;;19.70;59.00;;;;;;4982854;28;20026;-80
2021/10/01 10:54:42;;;;;;;0.98;0.75;;;20.10;58.30;;;;;;5006742;28;20041;-81
2021/10/01 10:57:46;;;;;;;0.60;0.60;;;20.20;58.20;;;;;;5023247;28;20386;-80
2021/10/01 11:00:43;;;;;;;1.92;0.75;;;20.50;57.60;;;;;;5014041;28;20038;-84
2021/10/01 11:03:23;;;;;;;0.65;0.60;;;20.50;56.70;;;;;;4990719;28;20047;-82
2021/10/01 11:06:18;;;;;;;0.60;0.60;;;20.40;57.00;;;;;;4998749;28;20088;-80
2021/10/01 11:09:17;;;;;;;0.93;0.60;;;20.50;57.20;;;;;;4993627;28;20030;-81
2021/10/01 11:11:45;;;;;;;3.80;0.90;;;20.50;55.60;;;;;;4997066;28;20034;-82
2021/10/01 11:15:01;;;;;;;0.75;0.75;;;20.10;56.30;;;;;;4988589;28;20057;-86
2021/10/01 11:17:32;;;;;;;0.90;0.68;;;19.90;57.20;;;;;;4992177;28;20046;-82
2021/10/01 11:22:39;;;;;;;1.10;0.70;;;20.30;56.60;;;;;;4692583;26;20057;-82
2021/10/01 11:25:16;;;;;;;1.75;0.70;;;20.50;56.00;;;;;;5013354;28;20018;-80
2021/10/01 11:27:49;;;;;;;1.15;0.80;;;20.80;55.60;;;;;;5004095;28;20343;-80
2021/10/01 11:30:15;;;;;;;0.90;0.60;;;21.00;55.00;;;;;;5003701;28;20029;-80
2021/10/01 11:32:40;;;;;;;1.83;0.80;;;21.20;54.00;;;;;;5018380;28;20018;-81
2021/10/01 11:35:07;;;;;;;2.65;0.65;;;21.00;53.60;;;;;;5001761;28;20054;-80
2021/10/01 11:37:41;;;;;;;0.60;0.60;;;21.10;53.10;;;;;;4986006;28;20435;-80
2021/10/01 11:42:43;;;;;;;0.73;0.70;;;21.00;54.30;;;;;;5017414;28;20046;-80
2021/10/01 11:45:15;;;;;;;2.75;0.80;;;21.00;54.50;;;;;;5009985;28;20027;-79
2021/10/01 11:47:54;;;;;;;1.33;0.80;;;21.10;54.30;;;;;;4986844;28;20040;-77
2021/10/01 11:50:29;;;;;;;1.30;1.00;;;21.40;53.60;;;;;;5024726;28;20498;-78
2021/10/01 11:52:58;;;;;;;1.65;0.63;;;21.50;53.30;;;;;;5022298;28;20094;-79
2021/10/01 11:55:26;;;;;;;1.33;0.95;;;21.40;53.50;;;;;;4996321;28;20029;-78
2021/10/01 11:57:52;;;;;;;0.88;0.80;;;21.20;54.30;;;;;;5000379;28;20022;-79
2021/10/01 12:00:18;;;;;;;1.02;0.95;;;21.30;54.40;;;;;;5014085;28;20029;-80
2021/10/01 12:02:47;;;;;;;1.10;0.70;;;21.30;54.00;;;;;;5022420;28;20026;-80
2021/10/01 12:05:35;;;;;;;0.80;0.80;;;21.50;53.80;;;;;;5018346;28;20530;-79
2021/10/01 12:08:06;;;;;;;1.00;1.00;;;21.40;53.70;;;;;;5003011;28;20026;-79
2021/10/01 12:10:37;;;;;;;0.70;0.70;;;21.30;54.00;;;;;;5003263;28;20077;-79
2021/10/01 12:13:17;;;;;;;0.97;0.87;;;21.30;54.40;;;;;;5002884;28;20080;-79
2021/10/01 12:15:42;;;;;;;1.75;0.90;;;21.30;54.60;;;;;;4998439;28;20410;-80
2021/10/01 12:18:34;;;;;;;1.10;0.98;;;21.40;53.80;;;;;;4992214;28;20030;-79
2021/10/01 12:21:03;;;;;;;1.33;0.90;;;21.50;54.00;;;;;;4995644;28;20491;-79
2021/10/01 12:23:37;;;;;;;0.80;0.57;;;21.40;54.00;;;;;;5019995;28;20399;-80
2021/10/01 12:26:21;;;;;;;1.10;0.80;;;21.50;54.50;;;;;;5010307;28;20030;-79
2021/10/01 12:29:02;;;;;;;2.42;0.70;;;21.80;54.00;;;;;;5002567;28;20367;-79
2021/10/01 12:31:30;;;;;;;1.00;0.90;;;22.00;53.40;;;;;;5002773;28;20080;-78
2021/10/01 12:33:59;;;;;;;0.95;0.70;;;22.20;53.10;;;;;;5001312;28;20069;-79
2021/10/01 12:36:26;;;;;;;0.80;0.80;;;22.30;52.40;;;;;;5002097;28;20018;-79
2021/10/01 12:38:54;;;;;;;2.80;0.73;;;22.40;52.50;;;;;;5003699;28;20022;-78
2021/10/01 12:41:20;;;;;;;0.70;0.70;;;22.30;52.00;;;;;;5012956;28;20390;-78
2021/10/01 12:43:50;;;;;;;0.65;0.65;;;22.10;52.70;;;;;;5004984;28;20026;-78
2021/10/01 12:46:40;;;;;;;1.13;0.57;;;22.10;53.20;;;;;;4988922;28;20113;-78
2021/10/01 12:49:16;;;;;;;1.00;0.80;;;22.30;52.60;;;;;;4989218;28;20022;-79
2021/10/01 12:51:42;;;;;;;1.17;0.70;;;22.50;51.50;;;;;;4998215;28;20041;-78
2021/10/01 12:54:31;;;;;;;0.47;0.47;;;22.50;50.70;;;;;;5007267;28;20022;-80
2021/10/01 12:57:18;;;;;;;0.80;0.80;;;22.60;50.70;;;;;;5014628;28;20029;-78
2021/10/01 12:59:55;;;;;;;1.33;0.50;;;22.70;50.40;;;;;;5022184;28;20045;-79
2021/10/01 13:02:26;;;;;;;1.55;0.60;;;22.80;49.90;;;;;;5011667;28;20095;-79
2021/10/01 13:04:59;;;;;;;0.63;0.63;;;22.90;49.50;;;;;;5002245;28;20346;-80
2021/10/01 13:07:34;;;;;;;0.65;0.65;;;22.80;49.40;;;;;;5016532;28;20019;-79
2021/10/01 13:10:04;;;;;;;0.70;0.60;;;22.60;50.00;;;;;;5002556;28;20030;-80
2021/10/01 13:12:38;;;;;;;0.90;0.80;;;22.60;50.10;;;;;;5002088;28;20023;-79
2021/10/01 13:15:23;;;;;;;2.67;0.70;;;22.70;50.30;;;;;;4992661;28;20033;-79
2021/10/01 13:18:09;;;;;;;1.08;0.65;;;22.90;50.00;;;;;;5019246;28;20482;-79
2021/10/01 13:20:39;;;;;;;1.85;0.50;;;23.10;49.90;;;;;;5020386;28;20030;-78
2021/10/01 13:23:09;;;;;;;1.35;0.90;;;23.00;49.70;;;;;;4987422;28;20607;-77
2021/10/01 13:25:50;;;;;;;0.90;0.90;;;22.90;50.50;;;;;;5018454;28;20086;-78
2021/10/01 13:28:18;;;;;;;0.80;0.80;;;22.90;50.70;;;;;;4964943;28;20396;-78
2021/10/01 13:30:44;;;;;;;0.70;0.47;;;23.00;50.50;;;;;;4988431;28;20046;-79
2021/10/01 13:33:10;;;;;;;0.88;0.70;;;23.20;49.90;;;;;;5002179;28;20072;-79
2021/10/01 13:35:37;;;;;;;1.00;0.57;;;23.20;49.50;;;;;;5002281;28;20074;-80
2021/10/01 13:38:04;;;;;;;0.63;0.63;;;23.20;49.60;;;;;;4983660;28;20263;-78
2021/10/01 13:40:30;;;;;;;1.13;0.60;;;23.30;49.50;;;;;;5006826;28;20030;-80
2021/10/01 13:42:56;;;;;;;0.63;0.50;;;23.30;49.60;;;;;;5019518;28;20037;-77
2021/10/01 13:45:23;;;;;;;1.05;0.65;;;23.40;49.90;;;;;;5019018;28;20033;-80
2021/10/01 13:47:49;;;;;;;0.70;0.70;;;23.50;49.40;;;;;;5020491;28;20029;-79
2021/10/01 13:50:15;;;;;;;0.82;0.70;;;23.60;49.00;;;;;;5020742;28;20022;-80
2021/10/01 13:52:41;;;;;;;1.15;0.70;;;23.70;48.70;;;;;;5021059;28;20018;-78
2021/10/01 13:55:09;;;;;;;0.73;0.73;;;23.70;48.80;;;;;;5007728;28;20010;-78
2021/10/01 13:57:35;;;;;;;0.50;0.50;;;23.60;48.90;;;;;;5015879;28;20030;-79
2021/10/01 14:00:01;;;;;;;0.70;0.70;;;23.60;49.50;;;;;;5020205;28;20052;-79
2021/10/01 14:02:27;;;;;;;0.60;0.60;;;23.60;50.30;;;;;;5002201;28;20096;-80
2021/10/01 14:04:52;;;;;;;4.03;1.33;;;23.60;49.90;;;;;;5015491;28;20102;-76
2021/10/01 14:07:18;;;;;;;0.73;0.70;;;23.20;50.70;;;;;;5016967;28;20039;-78
2021/10/01 14:09:44;;;;;;;1.10;0.70;;;23.00;51.70;;;;;;5016815;28;20049;-80
2021/10/01 14:12:10;;;;;;;0.80;0.80;;;23.10;52.00;;;;;;5006855;28;20030;-79
2021/10/01 14:14:35;;;;;;;0.90;0.90;;;23.20;51.80;;;;;;5019210;28;20026;-79
2021/10/01 14:17:01;;;;;;;0.82;0.80;;;23.10;51.90;;;;;;5013211;28;20022;-79
2021/10/01 14:19:27;;;;;;;0.88;0.70;;;22.90;52.30;;;;;;4999348;28;20093;-79
2021/10/01 14:21:52;;;;;;;0.82;0.80;;;22.90;52.60;;;;;;4998738;28;20090;-80
2021/10/01 14:24:18;;;;;;;0.73;0.73;;;23.10;52.30;;;;;;5004906;28;20021;-80
2021/10/01 14:26:44;;;;;;;0.57;0.57;;;23.30;51.00;;;;;;5002832;28;20102;-79
2021/10/01 14:29:10;;;;;;;0.73;0.70;;;23.40;49.90;;;;;;4983972;28;20126;-80
2021/10/01 14:31:35;;;;;;;0.60;0.60;;;23.50;49.50;;;;;;5000353;28;20097;-79
2021/10/01 14:34:01;;;;;;;0.60;0.60;;;23.40;49.20;;;;;;5020482;28;20082;-79
2021/10/01 14:36:27;;;;;;;0.70;0.70;;;23.40;49.50;;;;;;5017150;28;20018;-80
2021/10/01 14:38:53;;;;;;;1.00;0.80;;;23.30;49.60;;;;;;5017096;28;20034;-79
2021/10/01 14:41:19;;;;;;;0.50;0.50;;;23.30;49.80;;;;;;5002186;28;20031;-80
2021/10/01 14:43:45;;;;;;;1.95;0.70;;;23.30;49.90;;;;;;5010127;28;20062;-79
2021/10/01 14:46:11;;;;;;;0.60;0.60;;;23.30;49.90;;;;;;5004169;28;20106;-79
2021/10/01 14:48:36;;;;;;;0.60;0.60;;;23.20;50.00;;;;;;5003280;28;20027;-80
2021/10/01 14:51:03;;;;;;;1.15;0.70;;;23.10;50.40;;;;;;4995080;28;20053;-80